Wetterdaten: aktuell Dienstag, 04.10.2022 19:45
Datum Zeit Temp. A. Feuchte A. Luftdruck Regen Wind Richtung Richtung Sonnenschein ET UV Solar Taupunkt Windchill Windben
04.10.2022 19:45 13,4 C 73 % 1021,8 hPa 0,0 l/m 0,0 km/h (0 Bft) S 187 0 min 0,026 mm 0,0 UV-I 0 W/m 8,7 C 13,4 C 0,0 km/h (0 Bft)
04.10.2022 18:45 15,6 C 67 % 1021,3 hPa 0,0 l/m 0,0 km/h (0 Bft) S 187 0 min 0,051 mm 0,0 UV-I 0 W/m 9,5 C 15,6 C 0,0 km/h (0 Bft)
04.10.2022 17:45 17,3 C 61 % 1021,3 hPa 0,0 l/m 3,2 km/h (1 Bft) SO 144 30 min 0,177 mm 0,0 UV-I 30 W/m 9,7 C 17,3 C 9,7 km/h (2 Bft)
04.10.2022 16:45 18,4 C 58 % 1021,8 hPa 0,0 l/m 2,9 km/h (1 Bft) S 169 60 min 0,206 mm 0,7 UV-I 250 W/m 10,0 C 18,4 C 6,4 km/h (2 Bft)
04.10.2022 15:45 18,2 C 58 % 1022,5 hPa 0,0 l/m 3,2 km/h (1 Bft) W-SW 255 60 min 0,279 mm 1,3 UV-I 374 W/m 9,8 C 18,2 C 4,8 km/h (1 Bft)
04.10.2022 14:45 17,8 C 59 % 1022,9 hPa 0,0 l/m 3,2 km/h (1 Bft) S 180 60 min 0,254 mm 2,0 UV-I 471 W/m 9,7 C 17,8 C 11,3 km/h (2 Bft)
04.10.2022 13:45 16,8 C 66 % 1023,3 hPa 0,0 l/m 1,6 km/h (1 Bft) W-SW 247 60 min 0,254 mm 2,5 UV-I 545 W/m 10,4 C 16,8 C 6,4 km/h (2 Bft)
04.10.2022 12:45 16,1 C 70 % 1023,7 hPa 0,0 l/m 1,6 km/h (1 Bft) W-NW 292 50 min 0,152 mm 2,6 UV-I 571 W/m 10,6 C 16,1 C 6,4 km/h (2 Bft)
04.10.2022 11:45 13,9 C 77 % 1023,8 hPa 0,0 l/m 1,6 km/h (1 Bft) SW 225 0 min 0,076 mm 1,7 UV-I 274 W/m 9,9 C 13,9 C 8,0 km/h (2 Bft)
04.10.2022 10:45 12,6 C 83 % 1023,7 hPa 0,0 l/m 1,6 km/h (1 Bft) W-SW 247 0 min 0,051 mm 1,0 UV-I 178 W/m 9,8 C 12,6 C 6,4 km/h (2 Bft)
04.10.2022 09:45 11,6 C 85 % 1023,5 hPa 0,0 l/m 1,6 km/h (1 Bft) W 270 0 min 0,025 mm 0,6 UV-I 109 W/m 9,2 C 11,6 C 3,2 km/h (1 Bft)
04.10.2022 08:45 10,8 C 87 % 1023,2 hPa 0,0 l/m 1,6 km/h (1 Bft) SW 225 0 min 0,000 mm 0,0 UV-I 97 W/m 8,7 C 10,8 C 6,4 km/h (2 Bft)
04.10.2022 07:45 10,1 C 87 % 1023,1 hPa 0,0 l/m 1,6 km/h (1 Bft) W 270 5 min 0,000 mm 0,0 UV-I 19 W/m 8,0 C 10,1 C 4,8 km/h (1 Bft)
04.10.2022 06:45 9,8 C 88 % 1023,0 hPa 0,0 l/m 1,6 km/h (1 Bft) W 270 0 min 0,000 mm 0,0 UV-I 0 W/m 7,9 C 9,8 C 4,8 km/h (1 Bft)
04.10.2022 05:45 10,2 C 86 % 1023,2 hPa 0,0 l/m 1,6 km/h (1 Bft) N 0 0 min 0,000 mm 0,0 UV-I 0 W/m 8,0 C 10,2 C 0,0 km/h (0 Bft)
04.10.2022 04:45 11,0 C 85 % 1023,3 hPa 0,0 l/m 0,0 km/h (0 Bft) N 0 0 min 0,000 mm 0,0 UV-I 0 W/m 8,6 C 11,0 C 0,0 km/h (0 Bft)
04.10.2022 03:45 11,4 C 85 % 1023,7 hPa 0,0 l/m 0,0 km/h (0 Bft) N 0 0 min 0,000 mm 0,0 UV-I 0 W/m 9,0 C 11,4 C 0,0 km/h (0 Bft)
04.10.2022 02:45 11,4 C 84 % 1023,8 hPa 0,0 l/m 0,0 km/h (0 Bft) W-SW 247 0 min 0,025 mm 0,0 UV-I 0 W/m 8,8 C 11,4 C 3,2 km/h (1 Bft)
04.10.2022 01:45 11,8 C 84 % 1023,8 hPa 0,0 l/m 3,2 km/h (1 Bft) N 0 0 min 0,025 mm 0,0 UV-I 0 W/m 9,2 C 11,8 C 0,0 km/h (0 Bft)
04.10.2022 00:45 12,1 C 84 % 1023,8 hPa 0,0 l/m 1,6 km/h (1 Bft) W-SW 247 0 min 0,025 mm 0,0 UV-I 0 W/m 9,5 C 12,1 C 3,2 km/h (1 Bft)
04.10.2022 00:00 12,3 C 83 % 1023,9 hPa 0,0 l/m 1,6 km/h (1 Bft) W 270 0 min 0,025 mm 0,0 UV-I 0 W/m 9,5 C 12,3 C 1,6 km/h (1 Bft)
_ Min-Zeit 06:35 16:20 17:25 - 00:05 - - - - - - 06:35 06:35 00:50
Minimum _ 9,7 C 56 % 1021,3 hPa - 0,0 km/h (0 Bft) - - - - - - 7,6 C 9,7 C 0,0 km/h (0 Bft)
_ Max-Zeit 16:30 06:45 00:10 00:00 17:10 - - 07:30 15:00 13:20 13:20 13:50 16:30 14:10
Maximum _ 18,8 C 88 % 1024,0 hPa 0,0 l/m 5,4 km/h
S-SO (1 Bft)
- - 5 min 0,279 mm 2,9 UV-I 693 W/m 10,8 C 18,8 C 14,5 km/h
W-SW (3 Bft)
Durchschnitt _ 13,5 C 76 % 1023,1 hPa #0,0 l/m 1,5 km/h (1 Bft) W - #5:25 h #1,626 mm 1,5 UV-I 248 W/m 9,3 C 13,5 C 4,4 km/h (1 Bft)